Time;durP1;ratioP1;P1;durP2;ratioP2;P2;SDS_P1;SDS_P2;PMS_P1;PMS_P2;Temp;Humidity;BMP_temperature;BMP_pressure;BME280_temperature;BME280_humidity;BME280_pressure;Samples;Min_cycle;Max_cycle;Signal;HPM_P1;HPM_P2
2023/04/29 00:01:04;;;;;;;29.85;12.88;;;;;;;;;;5084027;28;20043;-74
2023/04/29 00:03:31;;;;;;;27.30;11.98;;;;;;;;;;5069047;28;20036;-74
2023/04/29 00:05:57;;;;;;;26.77;12.35;;;;;;;;;;5070201;28;20039;-74
2023/04/29 00:08:23;;;;;;;28.48;12.30;;;;;;;;;;5078549;28;20040;-74
2023/04/29 00:10:48;;;;;;;26.98;12.57;;;;;;;;;;5085492;28;20452;-75
2023/04/29 00:13:14;;;;;;;28.10;12.77;;;;;;;;;;5088613;28;20030;-74
2023/04/29 00:15:40;;;;;;;28.77;13.18;;;;;;;;;;5089369;28;20036;-74
2023/04/29 00:18:05;;;;;;;30.08;12.93;;;;;;;;;;5090413;28;20040;-74
2023/04/29 00:20:31;;;;;;;32.72;14.18;;;;;;;;;;5089609;28;20177;-74
2023/04/29 00:22:57;;;;;;;30.65;13.60;;;;;;;;;;5089809;28;20024;-75
2023/04/29 00:25:23;;;;;;;37.13;15.30;;;;;;;;;;5089283;28;20772;-74
2023/04/29 00:27:48;;;;;;;33.65;14.45;;;;;;;;;;5089913;28;20485;-75
2023/04/29 00:30:13;;;;;;;37.88;14.95;;;;;;;;;;5088587;28;20519;-74
2023/04/29 00:32:39;;;;;;;39.13;15.43;;;;;;;;;;5090126;28;20122;-74
2023/04/29 00:35:06;;;;;;;37.70;16.08;;;;;;;;;;5093690;28;20027;-75
2023/04/29 00:37:31;;;;;;;36.97;15.30;;;;;;;;;;5101046;28;20081;-74
2023/04/29 00:39:57;;;;;;;38.95;16.67;;;;;;;;;;5093229;28;20032;-74
2023/04/29 00:42:24;;;;;;;41.58;15.68;;;;;;;;;;5088328;28;20052;-74
2023/04/29 00:44:50;;;;;;;41.13;17.17;;;;;;;;;;5089799;28;20424;-74
2023/04/29 00:47:15;;;;;;;43.42;17.63;;;;;;;;;;5089506;28;20476;-74
2023/04/29 00:49:40;;;;;;;42.42;17.20;;;;;;;;;;5090020;28;20024;-74
2023/04/29 00:52:07;;;;;;;45.70;17.20;;;;;;;;;;5089435;28;20124;-74
2023/04/29 00:54:34;;;;;;;39.63;17.00;;;;;;;;;;5089474;28;20064;-74
2023/04/29 00:57:01;;;;;;;43.35;17.02;;;;;;;;;;5090119;28;20091;-74
2023/04/29 00:59:31;;;;;;;49.05;15.98;;;;;;;;;;5088302;28;20071;-75
2023/04/29 01:01:59;;;;;;;42.10;17.17;;;;;;;;;;5087841;28;20030;-74
2023/04/29 01:04:24;;;;;;;45.20;17.77;;;;;;;;;;5090487;28;20024;-74
2023/04/29 01:06:52;;;;;;;43.75;17.02;;;;;;;;;;5089438;28;20084;-75
2023/04/29 01:09:30;;;;;;;47.55;17.27;;;;;;;;;;5087061;28;20040;-74
2023/04/29 01:12:49;;;;;;;40.83;15.65;;;;;;;;;;5084103;28;20039;-74
2023/04/29 01:15:22;;;;;;;44.03;16.63;;;;;;;;;;5045483;28;20041;-74
2023/04/29 01:18:14;;;;;;;50.60;18.92;;;;;;;;;;5067429;28;20428;-75
2023/04/29 01:20:39;;;;;;;50.03;17.73;;;;;;;;;;5080248;28;20044;-74
2023/04/29 01:23:05;;;;;;;44.13;16.83;;;;;;;;;;5067093;28;20028;-74
2023/04/29 01:25:30;;;;;;;45.22;17.83;;;;;;;;;;5068780;28;20417;-74
2023/04/29 01:28:13;;;;;;;49.15;16.77;;;;;;;;;;5068668;28;20067;-74
2023/04/29 01:30:38;;;;;;;48.42;18.27;;;;;;;;;;5077580;28;20050;-75
2023/04/29 01:33:31;;;;;;;44.13;14.60;;;;;;;;;;5085793;28;20036;-75
2023/04/29 01:36:08;;;;;;;45.47;17.70;;;;;;;;;;5092679;28;20089;-74
2023/04/29 01:38:59;;;;;;;43.28;16.75;;;;;;;;;;5087137;28;20036;-74
2023/04/29 01:41:38;;;;;;;49.67;18.30;;;;;;;;;;5066901;28;20525;-74
2023/04/29 01:44:06;;;;;;;44.13;17.40;;;;;;;;;;5077835;28;20541;-75
2023/04/29 01:46:32;;;;;;;48.63;18.10;;;;;;;;;;5079701;28;20020;-75
2023/04/29 01:48:58;;;;;;;48.05;16.77;;;;;;;;;;5088270;28;20489;-74
2023/04/29 01:51:23;;;;;;;49.92;17.63;;;;;;;;;;5080744;28;20072;-74
2023/04/29 01:53:48;;;;;;;42.38;16.85;;;;;;;;;;5086606;28;20032;-74
2023/04/29 01:56:14;;;;;;;43.47;16.55;;;;;;;;;;5086465;28;20044;-74
2023/04/29 01:58:40;;;;;;;38.95;15.68;;;;;;;;;;5087971;28;20036;-74
2023/04/29 02:01:05;;;;;;;44.42;15.85;;;;;;;;;;5101399;28;20378;-74
2023/04/29 02:03:31;;;;;;;48.00;15.65;;;;;;;;;;5090948;28;20472;-74
2023/04/29 02:05:57;;;;;;;32.30;12.05;;;;;;;;;;5088756;28;20024;-75
2023/04/29 02:08:23;;;;;;;39.58;14.98;;;;;;;;;;5081442;28;20560;-74
2023/04/29 02:10:56;;;;;;;40.38;14.48;;;;;;;;;;5090476;28;20024;-74
2023/04/29 02:13:21;;;;;;;35.00;14.25;;;;;;;;;;5087096;28;20031;-74
2023/04/29 02:15:46;;;;;;;34.38;14.55;;;;;;;;;;5088489;28;20032;-74
2023/04/29 02:18:12;;;;;;;35.60;13.82;;;;;;;;;;5087801;28;20393;-74
2023/04/29 02:20:37;;;;;;;39.28;14.05;;;;;;;;;;5090215;28;20043;-74
2023/04/29 02:23:02;;;;;;;35.10;13.93;;;;;;;;;;5087559;28;20074;-74
2023/04/29 02:25:28;;;;;;;37.65;14.45;;;;;;;;;;5087660;28;20024;-74
2023/04/29 02:27:53;;;;;;;42.05;14.63;;;;;;;;;;5088102;28;20046;-74
2023/04/29 02:30:18;;;;;;;36.65;14.02;;;;;;;;;;5087154;28;20028;-75
2023/04/29 02:32:44;;;;;;;43.80;16.80;;;;;;;;;;5081629;28;20037;-74
2023/04/29 02:35:09;;;;;;;38.63;16.65;;;;;;;;;;5080236;28;20533;-74
2023/04/29 02:37:34;;;;;;;42.70;16.35;;;;;;;;;;5088836;28;20024;-75
2023/04/29 02:40:01;;;;;;;36.97;13.65;;;;;;;;;;5083127;28;20020;-74
2023/04/29 02:42:26;;;;;;;42.67;14.82;;;;;;;;;;5080799;28;20041;-75
2023/04/29 02:44:51;;;;;;;39.38;15.98;;;;;;;;;;5103617;28;20035;-75
2023/04/29 02:47:17;;;;;;;39.30;14.45;;;;;;;;;;5108088;28;20504;-74
2023/04/29 02:49:42;;;;;;;41.67;15.45;;;;;;;;;;5084377;28;20098;-74
2023/04/29 02:52:07;;;;;;;41.97;15.18;;;;;;;;;;5087641;28;20028;-74
2023/04/29 02:54:33;;;;;;;34.38;13.35;;;;;;;;;;5087001;28;20036;-75
2023/04/29 02:56:58;;;;;;;38.33;14.73;;;;;;;;;;5087350;28;20039;-74
2023/04/29 02:59:24;;;;;;;39.28;13.93;;;;;;;;;;5066747;28;20052;-74
2023/04/29 03:01:49;;;;;;;34.47;13.45;;;;;;;;;;5065827;28;20070;-74
2023/04/29 03:04:14;;;;;;;30.65;12.90;;;;;;;;;;5067031;28;20013;-74
2023/04/29 03:06:40;;;;;;;34.15;13.55;;;;;;;;;;5066819;28;20101;-74
2023/04/29 03:09:06;;;;;;;38.15;12.57;;;;;;;;;;5065838;28;20028;-74
2023/04/29 03:11:31;;;;;;;36.03;13.95;;;;;;;;;;5079745;28;20721;-74
2023/04/29 03:13:56;;;;;;;35.80;13.60;;;;;;;;;;5097739;28;20407;-74
2023/04/29 03:16:23;;;;;;;36.20;13.68;;;;;;;;;;5085852;28;20024;-74
2023/04/29 03:18:48;;;;;;;36.28;13.65;;;;;;;;;;5085839;28;20676;-74
2023/04/29 03:21:14;;;;;;;37.35;14.55;;;;;;;;;;5091279;28;20154;-74
2023/04/29 03:23:39;;;;;;;36.22;13.25;;;;;;;;;;5098275;28;20032;-74
2023/04/29 03:26:05;;;;;;;45.85;14.90;;;;;;;;;;5088956;28;20024;-74
2023/04/29 03:28:30;;;;;;;38.28;15.45;;;;;;;;;;5086213;28;20027;-74
2023/04/29 03:30:56;;;;;;;38.22;14.05;;;;;;;;;;5086352;28;20513;-74
2023/04/29 03:33:21;;;;;;;35.83;14.82;;;;;;;;;;5091500;28;20165;-74
2023/04/29 03:35:47;;;;;;;39.53;16.50;;;;;;;;;;5089280;28;20085;-74
2023/04/29 03:38:12;;;;;;;36.78;14.20;;;;;;;;;;5093155;28;20028;-74
2023/04/29 03:40:38;;;;;;;33.35;13.82;;;;;;;;;;5091038;28;20020;-75
2023/04/29 03:43:03;;;;;;;34.97;12.70;;;;;;;;;;5089744;28;20043;-74
2023/04/29 03:45:28;;;;;;;34.55;12.82;;;;;;;;;;5083181;28;20645;-74
2023/04/29 03:47:54;;;;;;;38.33;14.40;;;;;;;;;;5088745;28;20046;-75
2023/04/29 03:50:20;;;;;;;32.30;13.13;;;;;;;;;;5089989;28;20058;-74
2023/04/29 03:52:45;;;;;;;31.50;12.90;;;;;;;;;;5091840;28;20704;-74
2023/04/29 03:55:11;;;;;;;34.22;13.77;;;;;;;;;;5090976;28;20447;-74
2023/04/29 03:57:37;;;;;;;33.17;12.38;;;;;;;;;;5091442;28;20071;-74
2023/04/29 04:00:03;;;;;;;35.83;13.32;;;;;;;;;;5090820;28;20608;-74
2023/04/29 04:02:28;;;;;;;30.98;13.27;;;;;;;;;;5087045;28;20625;-74
2023/04/29 04:04:54;;;;;;;40.80;15.52;;;;;;;;;;5094529;28;20494;-74
2023/04/29 04:07:19;;;;;;;36.13;14.65;;;;;;;;;;5109922;28;20447;-75
2023/04/29 04:09:45;;;;;;;32.08;13.52;;;;;;;;;;5105293;27;20508;-74
2023/04/29 04:12:10;;;;;;;34.20;13.48;;;;;;;;;;5089493;28;20112;-74
2023/04/29 04:14:36;;;;;;;29.48;13.45;;;;;;;;;;5089897;28;20109;-74
2023/04/29 04:17:01;;;;;;;38.35;17.60;;;;;;;;;;5084011;28;20682;-74
2023/04/29 04:19:28;;;;;;;38.03;14.80;;;;;;;;;;5087050;28;20047;-74
2023/04/29 04:21:53;;;;;;;29.20;12.20;;;;;;;;;;5089565;28;20394;-74
2023/04/29 04:24:19;;;;;;;28.92;12.57;;;;;;;;;;5089723;28;20089;-75
2023/04/29 04:26:44;;;;;;;28.00;11.55;;;;;;;;;;5090077;28;20668;-75
2023/04/29 04:29:10;;;;;;;28.67;13.10;;;;;;;;;;5090120;28;20060;-74
2023/04/29 04:31:35;;;;;;;33.53;12.43;;;;;;;;;;5090554;28;20077;-74
2023/04/29 04:34:01;;;;;;;32.13;13.95;;;;;;;;;;5083372;28;20115;-74
2023/04/29 04:36:27;;;;;;;30.35;12.60;;;;;;;;;;5088394;28;20044;-75
2023/04/29 04:38:52;;;;;;;30.45;12.82;;;;;;;;;;5089231;28;20420;-74
2023/04/29 04:41:18;;;;;;;33.58;13.18;;;;;;;;;;5090145;28;20600;-74
2023/04/29 04:43:43;;;;;;;29.17;12.68;;;;;;;;;;5093165;28;20028;-74
2023/04/29 04:46:13;;;;;;;29.90;13.15;;;;;;;;;;5091619;28;20390;-74
2023/04/29 04:48:39;;;;;;;35.83;13.82;;;;;;;;;;5090085;28;20126;-74
2023/04/29 04:51:09;;;;;;;40.05;14.88;;;;;;;;;;5089665;28;20036;-74
2023/04/29 04:53:35;;;;;;;40.65;16.25;;;;;;;;;;5088036;28;20085;-74
2023/04/29 04:56:01;;;;;;;45.28;16.23;;;;;;;;;;5086749;28;20787;-74
2023/04/29 04:58:26;;;;;;;47.53;17.95;;;;;;;;;;5090380;28;20508;-74
2023/04/29 05:00:51;;;;;;;43.83;17.05;;;;;;;;;;5087618;28;20108;-74
2023/04/29 05:03:17;;;;;;;43.85;16.42;;;;;;;;;;5077009;28;20074;-74
2023/04/29 05:05:42;;;;;;;42.63;17.73;;;;;;;;;;5093197;28;20044;-74
2023/04/29 05:08:07;;;;;;;42.17;15.93;;;;;;;;;;5087422;28;20075;-73
2023/04/29 05:10:35;;;;;;;39.28;15.80;;;;;;;;;;5089522;28;20050;-74
2023/04/29 05:13:01;;;;;;;36.65;15.38;;;;;;;;;;5079223;28;20032;-74
2023/04/29 05:15:26;;;;;;;41.53;17.48;;;;;;;;;;5092640;28;20525;-74
2023/04/29 05:17:51;;;;;;;46.33;15.50;;;;;;;;;;5089144;28;20067;-74
2023/04/29 05:20:17;;;;;;;49.10;17.33;;;;;;;;;;5088628;28;20685;-74
2023/04/29 05:22:42;;;;;;;55.40;19.63;;;;;;;;;;5089206;28;20039;-75
2023/04/29 05:25:08;;;;;;;47.47;18.40;;;;;;;;;;5083461;28;20028;-74
2023/04/29 05:27:33;;;;;;;44.40;15.55;;;;;;;;;;5087306;28;20115;-74
2023/04/29 05:30:00;;;;;;;42.75;16.45;;;;;;;;;;5087077;28;20032;-74
2023/04/29 05:32:25;;;;;;;38.85;16.15;;;;;;;;;;5087934;28;20032;-74
2023/04/29 05:34:51;;;;;;;43.88;16.58;;;;;;;;;;5076461;28;20012;-74
2023/04/29 05:37:16;;;;;;;40.40;15.98;;;;;;;;;;5084947;28;20062;-74
2023/04/29 05:39:42;;;;;;;45.05;16.33;;;;;;;;;;5107014;28;20063;-74
2023/04/29 05:42:07;;;;;;;51.75;15.82;;;;;;;;;;5095515;28;20114;-74
2023/04/29 05:44:32;;;;;;;46.78;16.35;;;;;;;;;;5075362;28;20119;-74
2023/04/29 05:46:58;;;;;;;45.53;16.60;;;;;;;;;;5088352;28;20020;-74
2023/04/29 05:49:23;;;;;;;44.28;16.90;;;;;;;;;;5088623;28;20016;-74
2023/04/29 05:51:48;;;;;;;46.92;17.17;;;;;;;;;;5088374;28;20508;-75
2023/04/29 05:54:14;;;;;;;41.92;16.00;;;;;;;;;;5087111;28;20051;-74
2023/04/29 05:56:40;;;;;;;43.22;16.50;;;;;;;;;;5088059;28;20178;-74
2023/04/29 05:59:05;;;;;;;39.38;15.27;;;;;;;;;;5086348;28;20132;-74
2023/04/29 06:01:31;;;;;;;39.78;15.75;;;;;;;;;;5081448;28;20397;-75
2023/04/29 06:03:57;;;;;;;43.33;15.77;;;;;;;;;;5081437;28;20466;-74
2023/04/29 06:06:22;;;;;;;34.70;13.88;;;;;;;;;;5094409;28;20633;-74
2023/04/29 06:08:48;;;;;;;45.38;16.88;;;;;;;;;;5095498;28;20036;-74
2023/04/29 06:11:13;;;;;;;38.53;17.23;;;;;;;;;;5090134;28;20029;-74
2023/04/29 06:13:39;;;;;;;37.97;15.18;;;;;;;;;;5086513;28;20266;-74
2023/04/29 06:16:04;;;;;;;39.17;15.27;;;;;;;;;;5080082;28;20127;-75
2023/04/29 06:18:30;;;;;;;41.33;15.38;;;;;;;;;;5086239;28;20050;-75
2023/04/29 06:20:55;;;;;;;32.33;12.85;;;;;;;;;;5076122;28;20090;-74
2023/04/29 06:23:20;;;;;;;41.72;14.80;;;;;;;;;;5080785;28;20040;-74
2023/04/29 06:25:46;;;;;;;37.38;14.80;;;;;;;;;;5088188;28;20024;-74
2023/04/29 06:28:11;;;;;;;36.40;13.98;;;;;;;;;;5086167;28;20032;-75
2023/04/29 06:30:37;;;;;;;38.10;13.32;;;;;;;;;;5087925;28;20073;-75
2023/04/29 06:33:02;;;;;;;37.58;13.63;;;;;;;;;;5084768;28;20844;-74
2023/04/29 06:35:28;;;;;;;38.95;14.30;;;;;;;;;;5084153;28;20564;-75
2023/04/29 06:37:55;;;;;;;39.20;14.48;;;;;;;;;;5086553;28;20020;-74
2023/04/29 06:40:20;;;;;;;39.78;16.50;;;;;;;;;;5083902;28;20051;-74
2023/04/29 06:42:46;;;;;;;45.40;17.45;;;;;;;;;;5087765;28;20067;-74
2023/04/29 06:45:11;;;;;;;40.90;15.77;;;;;;;;;;5087843;28;20036;-74
2023/04/29 06:47:37;;;;;;;43.13;14.88;;;;;;;;;;5086717;28;20111;-74
2023/04/29 06:50:02;;;;;;;48.05;18.88;;;;;;;;;;5088890;28;20020;-74
2023/04/29 06:52:28;;;;;;;41.20;16.50;;;;;;;;;;5086257;28;20078;-74
2023/04/29 06:54:53;;;;;;;40.47;14.63;;;;;;;;;;5087699;28;20043;-74
2023/04/29 06:57:19;;;;;;;37.95;15.07;;;;;;;;;;5086576;28;20043;-74
2023/04/29 06:59:45;;;;;;;31.80;13.95;;;;;;;;;;5086628;28;20646;-75
2023/04/29 07:02:10;;;;;;;50.78;17.52;;;;;;;;;;5078478;28;20039;-73
2023/04/29 07:04:36;;;;;;;40.08;17.42;;;;;;;;;;5076108;28;20290;-74
2023/04/29 07:07:02;;;;;;;43.45;14.30;;;;;;;;;;5088306;28;20088;-74
2023/04/29 07:09:28;;;;;;;38.25;15.05;;;;;;;;;;5081911;28;20054;-73
2023/04/29 07:11:53;;;;;;;38.50;15.23;;;;;;;;;;5083760;28;20836;-74
2023/04/29 07:14:21;;;;;;;40.17;16.63;;;;;;;;;;5085335;28;20039;-74
2023/04/29 07:16:46;;;;;;;36.10;13.93;;;;;;;;;;5080902;28;20017;-74
2023/04/29 07:19:12;;;;;;;37.92;15.20;;;;;;;;;;5085745;28;20051;-74
2023/04/29 07:21:37;;;;;;;37.00;14.73;;;;;;;;;;5086806;28;20132;-74
2023/04/29 07:24:03;;;;;;;43.67;17.98;;;;;;;;;;5086356;28;20055;-74
2023/04/29 07:26:29;;;;;;;39.17;15.98;;;;;;;;;;5082437;28;20420;-74
2023/04/29 07:28:54;;;;;;;34.35;13.60;;;;;;;;;;5090366;28;20020;-74
2023/04/29 07:31:20;;;;;;;37.00;15.55;;;;;;;;;;5098022;28;20024;-73
2023/04/29 07:33:46;;;;;;;38.67;15.25;;;;;;;;;;5094912;28;20123;-74
2023/04/29 07:36:11;;;;;;;42.55;14.80;;;;;;;;;;5087285;28;20082;-74
2023/04/29 07:38:37;;;;;;;43.08;15.27;;;;;;;;;;5082943;28;20063;-71
2023/04/29 07:41:05;;;;;;;32.15;13.77;;;;;;;;;;5085412;28;20031;-71
2023/04/29 07:43:31;;;;;;;35.13;13.95;;;;;;;;;;5084776;28;20391;-74
2023/04/29 07:45:56;;;;;;;33.13;13.95;;;;;;;;;;5079722;28;20494;-74
2023/04/29 07:48:22;;;;;;;33.55;12.95;;;;;;;;;;5084215;28;20036;-74
2023/04/29 07:50:47;;;;;;;36.28;13.95;;;;;;;;;;5080244;28;20032;-74
2023/04/29 07:53:14;;;;;;;32.47;12.43;;;;;;;;;;5087698;28;20032;-74
2023/04/29 07:55:39;;;;;;;30.80;11.98;;;;;;;;;;5077386;28;20107;-74
2023/04/29 07:58:05;;;;;;;30.67;11.32;;;;;;;;;;5073900;28;20040;-74
2023/04/29 08:00:30;;;;;;;26.65;11.00;;;;;;;;;;5083279;28;20584;-74
2023/04/29 08:02:56;;;;;;;21.52;9.93;;;;;;;;;;5064267;28;20535;-74
2023/04/29 08:05:22;;;;;;;25.80;10.40;;;;;;;;;;5062026;28;20038;-74
2023/04/29 08:07:48;;;;;;;21.33;10.48;;;;;;;;;;5071048;28;20070;-74
2023/04/29 08:10:17;;;;;;;24.88;10.73;;;;;;;;;;5084439;28;20128;-74
2023/04/29 08:12:47;;;;;;;20.65;9.68;;;;;;;;;;5073959;28;20058;-74
2023/04/29 08:15:13;;;;;;;18.52;8.85;;;;;;;;;;5078743;28;20043;-74
2023/04/29 08:17:38;;;;;;;24.40;9.40;;;;;;;;;;5082612;28;20036;-74
2023/04/29 08:20:04;;;;;;;23.95;9.02;;;;;;;;;;5087485;28;20028;-74
2023/04/29 08:22:30;;;;;;;21.20;9.00;;;;;;;;;;5075216;28;20028;-74
2023/04/29 08:24:56;;;;;;;20.05;8.63;;;;;;;;;;5071937;28;20032;-74
2023/04/29 08:27:21;;;;;;;20.20;8.98;;;;;;;;;;5081238;28;20473;-74
2023/04/29 08:29:47;;;;;;;18.65;8.85;;;;;;;;;;5076072;28;20102;-73
2023/04/29 08:32:13;;;;;;;19.50;9.32;;;;;;;;;;5076292;28;20024;-73
2023/04/29 08:34:40;;;;;;;20.15;10.07;;;;;;;;;;5082813;28;20016;-73
2023/04/29 08:37:05;;;;;;;20.35;9.10;;;;;;;;;;5081469;28;20039;-73
2023/04/29 08:39:31;;;;;;;20.00;8.55;;;;;;;;;;5048838;28;20040;-73
2023/04/29 08:41:57;;;;;;;21.08;9.27;;;;;;;;;;5039066;28;20032;-73
2023/04/29 08:44:25;;;;;;;23.90;9.45;;;;;;;;;;5044565;28;20028;-73
2023/04/29 08:46:51;;;;;;;20.48;10.27;;;;;;;;;;5045277;28;20095;-72
2023/04/29 08:49:17;;;;;;;28.30;10.20;;;;;;;;;;5027573;28;20062;-72
2023/04/29 08:51:42;;;;;;;19.17;8.93;;;;;;;;;;5026564;28;20288;-72
2023/04/29 08:54:08;;;;;;;24.05;9.60;;;;;;;;;;5026662;28;20032;-72
2023/04/29 08:56:33;;;;;;;20.10;9.45;;;;;;;;;;5026326;28;20123;-74
2023/04/29 08:59:01;;;;;;;23.58;9.63;;;;;;;;;;5023653;28;20131;-72
2023/04/29 09:01:28;;;;;;;22.50;9.95;;;;;;;;;;5028637;28;20043;-73
2023/04/29 09:04:07;;;;;;;19.95;9.15;;;;;;;;;;5019604;28;20040;-73
2023/04/29 09:06:32;;;;;;;24.73;9.95;;;;;;;;;;5034540;28;20616;-73
2023/04/29 09:08:59;;;;;;;23.42;9.60;;;;;;;;;;5034151;28;20040;-72
2023/04/29 09:11:26;;;;;;;20.33;9.88;;;;;;;;;;5034938;28;20151;-72
2023/04/29 09:13:58;;;;;;;22.25;10.27;;;;;;;;;;5033395;28;20389;-72
2023/04/29 09:16:23;;;;;;;22.13;10.35;;;;;;;;;;5033905;28;20085;-73
2023/04/29 09:18:50;;;;;;;21.60;9.63;;;;;;;;;;5034969;28;20039;-73
2023/04/29 09:21:19;;;;;;;19.60;9.68;;;;;;;;;;5035833;28;20588;-74
2023/04/29 09:23:45;;;;;;;21.27;10.00;;;;;;;;;;5035543;28;20084;-74
2023/04/29 09:26:11;;;;;;;23.90;10.02;;;;;;;;;;5029683;28;20126;-73
2023/04/29 09:28:38;;;;;;;39.38;11.25;;;;;;;;;;5037580;28;20034;-73
2023/04/29 09:31:05;;;;;;;24.23;10.18;;;;;;;;;;5030363;28;20428;-74
2023/04/29 09:33:31;;;;;;;23.27;9.68;;;;;;;;;;5032485;28;20044;-74
2023/04/29 09:35:56;;;;;;;29.70;11.80;;;;;;;;;;5032565;28;20044;-74
2023/04/29 09:38:22;;;;;;;24.73;11.27;;;;;;;;;;5033033;28;20286;-73
2023/04/29 09:40:47;;;;;;;26.65;11.40;;;;;;;;;;5039603;28;20054;-73
2023/04/29 09:43:15;;;;;;;25.80;10.98;;;;;;;;;;5024544;28;20048;-74
2023/04/29 09:45:45;;;;;;;25.13;11.52;;;;;;;;;;5015482;28;20071;-73
2023/04/29 09:48:11;;;;;;;26.83;12.13;;;;;;;;;;5079398;28;20028;-73
2023/04/29 09:50:38;;;;;;;27.95;11.60;;;;;;;;;;5083186;28;20032;-74
2023/04/29 09:53:07;;;;;;;23.92;12.00;;;;;;;;;;5086094;28;20020;-74
2023/04/29 09:55:33;;;;;;;27.65;12.52;;;;;;;;;;5088261;28;20548;-74
2023/04/29 09:57:59;;;;;;;30.25;11.63;;;;;;;;;;5086049;28;20115;-73
2023/04/29 10:00:31;;;;;;;28.05;12.73;;;;;;;;;;5086485;28;20063;-74
2023/04/29 10:02:58;;;;;;;27.35;12.85;;;;;;;;;;5084481;28;20040;-74
2023/04/29 10:05:27;;;;;;;25.42;12.15;;;;;;;;;;5081722;28;20059;-74
2023/04/29 10:07:54;;;;;;;35.35;14.32;;;;;;;;;;5080314;28;20087;-72
2023/04/29 10:10:21;;;;;;;25.85;11.90;;;;;;;;;;5078218;28;20074;-72
2023/04/29 10:12:46;;;;;;;25.40;12.32;;;;;;;;;;5087974;28;20715;-72
2023/04/29 10:15:36;;;;;;;28.13;12.13;;;;;;;;;;5085014;28;20061;-73
2023/04/29 10:18:16;;;;;;;24.88;11.68;;;;;;;;;;5094246;28;20036;-72
2023/04/29 10:20:46;;;;;;;27.15;12.13;;;;;;;;;;5078787;28;20494;-72
2023/04/29 10:23:13;;;;;;;23.98;11.20;;;;;;;;;;5079325;28;20511;-72
2023/04/29 10:25:41;;;;;;;26.13;11.93;;;;;;;;;;5079824;28;20439;-72
2023/04/29 10:28:12;;;;;;;28.45;11.95;;;;;;;;;;5079466;28;20499;-72
2023/04/29 10:30:38;;;;;;;29.15;11.48;;;;;;;;;;5074133;28;20021;-72
2023/04/29 10:33:04;;;;;;;23.08;12.10;;;;;;;;;;5082081;28;20027;-72
2023/04/29 10:35:29;;;;;;;22.70;10.93;;;;;;;;;;5072735;28;20046;-72
2023/04/29 10:38:00;;;;;;;26.70;11.15;;;;;;;;;;5077220;28;20445;-72
2023/04/29 10:40:46;;;;;;;24.90;11.93;;;;;;;;;;5080215;28;20154;-72
2023/04/29 10:43:12;;;;;;;22.40;12.00;;;;;;;;;;5076116;28;20039;-72
2023/04/29 10:45:38;;;;;;;24.77;10.95;;;;;;;;;;5073115;28;20052;-73
2023/04/29 10:48:09;;;;;;;21.05;10.95;;;;;;;;;;5074102;28;20058;-73
2023/04/29 10:50:47;;;;;;;22.92;11.18;;;;;;;;;;5073011;28;20048;-72
2023/04/29 10:53:13;;;;;;;21.02;10.15;;;;;;;;;;5072248;28;20042;-72
2023/04/29 10:55:40;;;;;;;28.42;11.85;;;;;;;;;;5075479;28;20034;-72
2023/04/29 10:58:51;;;;;;;25.02;11.88;;;;;;;;;;5082329;28;20070;-73
2023/04/29 11:01:41;;;;;;;23.33;11.15;;;;;;;;;;5080734;28;20053;-73
2023/04/29 11:04:07;;;;;;;25.65;11.32;;;;;;;;;;5084346;28;20055;-72
2023/04/29 11:06:33;;;;;;;21.88;11.10;;;;;;;;;;5088287;28;20036;-72
2023/04/29 11:09:09;;;;;;;23.90;10.77;;;;;;;;;;5085183;28;20036;-73
2023/04/29 11:11:48;;;;;;;24.05;10.93;;;;;;;;;;5089017;28;20040;-72
2023/04/29 11:14:15;;;;;;;23.08;11.25;;;;;;;;;;5081798;28;20059;-73
2023/04/29 11:17:00;;;;;;;23.92;11.25;;;;;;;;;;5086203;28;20024;-71
2023/04/29 11:19:33;;;;;;;25.30;12.10;;;;;;;;;;5075317;28;20536;-74
2023/04/29 11:22:10;;;;;;;22.30;11.37;;;;;;;;;;5064082;28;20086;-74
2023/04/29 11:24:48;;;;;;;25.40;11.43;;;;;;;;;;5076588;28;20567;-74
2023/04/29 11:27:14;;;;;;;23.70;11.57;;;;;;;;;;5085142;28;20047;-74
2023/04/29 11:29:40;;;;;;;27.25;11.88;;;;;;;;;;5080315;28;20043;-73
2023/04/29 11:32:06;;;;;;;24.42;11.63;;;;;;;;;;5070151;28;20040;-73
2023/04/29 11:34:32;;;;;;;22.70;11.68;;;;;;;;;;5074587;28;20024;-73
2023/04/29 11:36:57;;;;;;;24.90;11.98;;;;;;;;;;5073711;28;20044;-73
2023/04/29 11:39:23;;;;;;;27.33;11.38;;;;;;;;;;5086277;28;20048;-73
2023/04/29 11:41:48;;;;;;;20.73;11.10;;;;;;;;;;5077504;28;20032;-73
2023/04/29 11:44:20;;;;;;;22.70;11.07;;;;;;;;;;5077381;28;20524;-73
2023/04/29 11:46:45;;;;;;;26.30;12.38;;;;;;;;;;5077613;28;20024;-73
2023/04/29 11:49:11;;;;;;;24.42;11.95;;;;;;;;;;5065604;28;20037;-73
2023/04/29 11:51:36;;;;;;;21.77;11.63;;;;;;;;;;5073174;28;20409;-73
2023/04/29 11:54:01;;;;;;;22.33;11.18;;;;;;;;;;5078699;28;20032;-73
2023/04/29 11:56:27;;;;;;;23.05;11.85;;;;;;;;;;5071786;28;20069;-73
2023/04/29 11:58:55;;;;;;;21.67;10.77;;;;;;;;;;5075688;28;20472;-73
2023/04/29 12:01:21;;;;;;;22.60;11.50;;;;;;;;;;5076938;28;20059;-73
2023/04/29 12:03:48;;;;;;;20.95;10.77;;;;;;;;;;5083449;28;20161;-73
2023/04/29 12:06:14;;;;;;;20.58;10.27;;;;;;;;;;5077647;28;20086;-73
2023/04/29 12:08:39;;;;;;;24.02;11.15;;;;;;;;;;5080449;28;20509;-73
2023/04/29 12:11:06;;;;;;;25.05;11.77;;;;;;;;;;5079598;28;20036;-73
2023/04/29 12:13:34;;;;;;;23.15;11.23;;;;;;;;;;5071436;28;20042;-73
2023/04/29 12:16:00;;;;;;;27.00;12.18;;;;;;;;;;5077408;28;20035;-73
2023/04/29 12:18:26;;;;;;;21.00;9.88;;;;;;;;;;5082409;28;20516;-73
2023/04/29 12:20:52;;;;;;;19.70;11.38;;;;;;;;;;5084769;28;20131;-73
2023/04/29 12:23:21;;;;;;;20.95;10.55;;;;;;;;;;5079120;28;20123;-73
2023/04/29 12:25:51;;;;;;;21.42;11.65;;;;;;;;;;5072525;28;20029;-73
2023/04/29 12:28:18;;;;;;;19.90;9.63;;;;;;;;;;5073342;28;20044;-73
2023/04/29 12:30:45;;;;;;;24.42;10.73;;;;;;;;;;5081455;28;20078;-73
2023/04/29 12:33:18;;;;;;;25.90;11.02;;;;;;;;;;5083679;28;20071;-73
2023/04/29 12:35:44;;;;;;;22.73;10.73;;;;;;;;;;5078606;28;20033;-73
2023/04/29 12:38:10;;;;;;;22.55;11.13;;;;;;;;;;5081053;28;20413;-73
2023/04/29 12:40:35;;;;;;;21.02;10.52;;;;;;;;;;5076870;28;20060;-73
2023/04/29 12:43:08;;;;;;;26.77;11.93;;;;;;;;;;5070685;28;20131;-73
2023/04/29 12:45:33;;;;;;;30.37;11.80;;;;;;;;;;5073272;28;20085;-73
2023/04/29 12:48:00;;;;;;;20.90;11.00;;;;;;;;;;5080045;28;20290;-73
2023/04/29 12:50:33;;;;;;;21.10;11.02;;;;;;;;;;5081160;28;20083;-73
2023/04/29 12:53:00;;;;;;;20.52;10.93;;;;;;;;;;5078492;28;20024;-73
2023/04/29 12:55:25;;;;;;;20.90;10.82;;;;;;;;;;5089459;28;20607;-73
2023/04/29 12:57:51;;;;;;;23.33;12.05;;;;;;;;;;5089776;28;20508;-73
2023/04/29 13:00:17;;;;;;;20.85;10.63;;;;;;;;;;5087270;28;20060;-73
2023/04/29 13:02:42;;;;;;;18.75;10.35;;;;;;;;;;5091574;28;20151;-73
2023/04/29 13:05:08;;;;;;;22.33;10.98;;;;;;;;;;5080128;28;20507;-73
2023/04/29 13:07:33;;;;;;;21.45;10.68;;;;;;;;;;5084111;28;20027;-73
2023/04/29 13:09:59;;;;;;;23.60;11.68;;;;;;;;;;5072901;28;20040;-73
2023/04/29 13:12:24;;;;;;;21.50;10.52;;;;;;;;;;5077948;28;20040;-73
2023/04/29 13:14:50;;;;;;;21.63;10.93;;;;;;;;;;5079620;28;20030;-73
2023/04/29 13:17:15;;;;;;;17.02;10.05;;;;;;;;;;5082691;28;20024;-73
2023/04/29 13:19:43;;;;;;;22.35;11.48;;;;;;;;;;5081464;28;20032;-73
2023/04/29 13:22:08;;;;;;;21.63;10.68;;;;;;;;;;5088292;28;20040;-73
2023/04/29 13:24:35;;;;;;;18.38;10.30;;;;;;;;;;5088802;28;20036;-73
2023/04/29 13:27:01;;;;;;;20.48;10.98;;;;;;;;;;5088688;28;20086;-73
2023/04/29 13:29:27;;;;;;;20.38;10.73;;;;;;;;;;5087226;28;20040;-73
2023/04/29 13:31:52;;;;;;;22.20;10.77;;;;;;;;;;5087181;28;20032;-73
2023/04/29 13:34:19;;;;;;;19.88;11.18;;;;;;;;;;5085888;28;20019;-73
2023/04/29 13:36:45;;;;;;;23.52;11.25;;;;;;;;;;5083417;28;20056;-73
2023/04/29 13:39:10;;;;;;;20.25;10.50;;;;;;;;;;5085941;28;20044;-73
2023/04/29 13:41:35;;;;;;;23.63;10.75;;;;;;;;;;5087786;28;20075;-73
2023/04/29 13:44:01;;;;;;;23.48;10.70;;;;;;;;;;5080501;28;20028;-73
2023/04/29 13:46:27;;;;;;;19.67;11.25;;;;;;;;;;5088525;28;20674;-73
2023/04/29 13:48:52;;;;;;;21.52;10.68;;;;;;;;;;5087440;28;20077;-73
2023/04/29 13:51:18;;;;;;;20.30;11.20;;;;;;;;;;5086071;28;20048;-73
2023/04/29 13:53:43;;;;;;;22.27;11.30;;;;;;;;;;5087855;28;20136;-74
2023/04/29 13:56:09;;;;;;;23.83;11.77;;;;;;;;;;5063525;28;20039;-73
2023/04/29 13:58:34;;;;;;;22.15;11.25;;;;;;;;;;5077668;28;20074;-73
2023/04/29 14:01:00;;;;;;;22.00;11.55;;;;;;;;;;5078239;28;20096;-73
2023/04/29 14:03:26;;;;;;;21.95;11.13;;;;;;;;;;5080266;28;20892;-73
2023/04/29 14:05:51;;;;;;;19.52;10.93;;;;;;;;;;5077522;28;20116;-73
2023/04/29 14:08:16;;;;;;;19.67;10.80;;;;;;;;;;5066569;28;20066;-72
2023/04/29 14:10:42;;;;;;;19.65;10.88;;;;;;;;;;5077461;28;20036;-73
2023/04/29 14:13:07;;;;;;;19.85;10.68;;;;;;;;;;5076873;28;20047;-73
2023/04/29 14:15:32;;;;;;;20.85;10.55;;;;;;;;;;5075995;28;20051;-73
2023/04/29 14:17:58;;;;;;;19.45;10.27;;;;;;;;;;5070235;28;20443;-73